Time;durP1;ratioP1;P1;durP2;ratioP2;P2;SDS_P1;SDS_P2;PMS_P1;PMS_P2;Temp;Humidity;BMP_temperature;BMP_pressure;BME280_temperature;BME280_humidity;BME280_pressure;Samples;Min_cycle;Max_cycle;Signal;HPM_P1;HPM_P2
2024/02/02 06:13:55;;;;;;;12.75;2.83;;;19.20;62.40;;;;;;5107209;27;20400;-65
2024/02/02 06:16:22;;;;;;;8.32;2.63;;;18.80;62.50;;;;;;5119827;28;20775;-66
2024/02/02 06:18:48;;;;;;;12.18;2.50;;;18.80;62.40;;;;;;5106868;28;20028;-62
2024/02/02 06:21:14;;;;;;;14.80;3.22;;;18.70;62.40;;;;;;5113836;28;20088;-63
2024/02/02 06:23:46;;;;;;;10.30;2.67;;;18.60;62.40;;;;;;5110445;28;20107;-63
2024/02/02 06:26:11;;;;;;;13.07;2.95;;;18.70;62.40;;;;;;5114815;28;20040;-62
2024/02/02 06:28:37;;;;;;;9.60;2.60;;;18.70;62.60;;;;;;5114608;28;20077;-60
2024/02/02 06:31:06;;;;;;;20.42;3.38;;;18.80;62.70;;;;;;5122096;28;20035;-65
2024/02/02 06:33:32;;;;;;;11.68;2.90;;;18.80;62.50;;;;;;5105490;28;20054;-65
2024/02/02 06:35:57;;;;;;;14.00;3.75;;;18.80;62.60;;;;;;5114431;27;20118;-63
2024/02/02 06:38:23;;;;;;;11.95;2.95;;;18.80;62.40;;;;;;5119807;28;20387;-63
2024/02/02 06:40:49;;;;;;;10.05;2.45;;;18.80;62.50;;;;;;5117319;28;20043;-63
2024/02/02 06:43:14;;;;;;;9.77;2.67;;;18.80;62.40;;;;;;5116436;28;20027;-65
2024/02/02 06:45:43;;;;;;;9.85;2.60;;;18.80;62.10;;;;;;5118938;28;20076;-64
2024/02/02 06:48:13;;;;;;;12.95;2.90;;;18.80;62.00;;;;;;5118645;28;20039;-65
2024/02/02 06:50:39;;;;;;;13.65;3.85;;;18.80;62.20;;;;;;5119135;27;20493;-65
2024/02/02 06:53:05;;;;;;;9.60;2.90;;;18.90;61.90;;;;;;5115949;27;20047;-64
2024/02/02 06:55:30;;;;;;;7.50;2.45;;;18.90;61.80;;;;;;5114484;27;20031;-63
2024/02/02 06:57:56;;;;;;;10.50;3.10;;;18.90;61.40;;;;;;5124834;27;20031;-60
2024/02/02 07:00:22;;;;;;;12.02;2.85;;;18.90;61.30;;;;;;5123655;27;20031;-62
2024/02/02 07:02:48;;;;;;;16.17;3.13;;;18.90;61.30;;;;;;5116240;28;20028;-62
2024/02/02 07:05:14;;;;;;;11.25;2.67;;;18.80;61.50;;;;;;5107593;28;20103;-62
2024/02/02 07:07:40;;;;;;;12.50;2.72;;;18.90;61.60;;;;;;5116624;28;20031;-62
2024/02/02 07:10:14;;;;;;;14.10;3.70;;;18.90;61.40;;;;;;5114030;28;20390;-62
2024/02/02 07:12:57;;;;;;;15.13;2.80;;;18.90;61.20;;;;;;5114166;27;20070;-62
2024/02/02 07:15:30;;;;;;;10.95;2.80;;;18.90;61.20;;;;;;5109515;28;20027;-62
2024/02/02 07:17:56;;;;;;;11.37;3.30;;;18.90;61.20;;;;;;5112424;27;20106;-62
2024/02/02 07:20:22;;;;;;;14.05;2.60;;;18.90;61.10;;;;;;5115653;28;20027;-62
2024/02/02 07:22:52;;;;;;;12.85;2.50;;;18.90;61.00;;;;;;5108859;28;20391;-62
2024/02/02 07:25:20;;;;;;;12.93;2.78;;;18.90;61.00;;;;;;5101881;28;20029;-62
2024/02/02 07:27:51;;;;;;;11.50;3.05;;;18.90;61.10;;;;;;5098921;28;20446;-62
2024/02/02 07:30:44;;;;;;;13.95;2.55;;;18.90;61.10;;;;;;5099765;28;20028;-62
2024/02/02 07:33:31;;;;;;;11.40;3.60;;;18.90;60.70;;;;;;5099114;28;20040;-62
2024/02/02 07:35:58;;;;;;;14.20;3.35;;;18.80;60.70;;;;;;5106272;28;20035;-64
2024/02/02 07:38:46;;;;;;;8.88;2.83;;;18.80;60.80;;;;;;5109903;28;20398;-60
2024/02/02 07:41:17;;;;;;;11.57;2.90;;;18.90;60.60;;;;;;5098354;28;20058;-63
2024/02/02 07:43:47;;;;;;;9.95;3.08;;;18.90;60.90;;;;;;5100604;28;20502;-64
2024/02/02 07:46:12;;;;;;;10.27;2.65;;;18.90;60.50;;;;;;5098759;27;20036;-68
2024/02/02 07:48:39;;;;;;;11.65;2.78;;;19.00;60.70;;;;;;5099162;28;20039;-63
2024/02/02 07:51:06;;;;;;;25.50;3.55;;;19.00;60.90;;;;;;5103321;28;20506;-63
2024/02/02 07:53:32;;;;;;;11.32;2.88;;;19.00;61.10;;;;;;5100705;28;20074;-60
2024/02/02 07:55:58;;;;;;;17.42;3.42;;;19.10;61.30;;;;;;5097716;28;20032;-63
2024/02/02 07:58:24;;;;;;;14.75;3.78;;;19.10;61.60;;;;;;5093751;28;20026;-64
2024/02/02 08:00:50;;;;;;;14.48;2.97;;;19.10;61.50;;;;;;5090393;28;20684;-64
2024/02/02 08:03:16;;;;;;;12.13;2.50;;;19.10;61.50;;;;;;5103667;28;20032;-64
2024/02/02 08:05:42;;;;;;;11.48;2.92;;;19.10;61.50;;;;;;5101311;28;20031;-64
2024/02/02 08:08:08;;;;;;;7.47;2.75;;;19.10;61.60;;;;;;5102541;28;21454;-64
2024/02/02 08:10:34;;;;;;;10.88;2.70;;;19.20;61.50;;;;;;5097188;28;20146;-65
2024/02/02 08:13:00;;;;;;;9.70;2.55;;;19.10;61.50;;;;;;5104461;28;20565;-64
2024/02/02 08:15:26;;;;;;;9.68;2.83;;;19.20;61.50;;;;;;5102841;28;20035;-64
2024/02/02 08:17:53;;;;;;;7.85;2.50;;;19.20;61.50;;;;;;5096055;27;20505;-65
2024/02/02 08:20:19;;;;;;;10.70;2.75;;;19.20;61.50;;;;;;5095597;28;20103;-64
2024/02/02 08:22:46;;;;;;;12.25;2.90;;;19.20;61.40;;;;;;5100915;28;20051;-64
2024/02/02 08:25:12;;;;;;;8.80;2.70;;;19.20;61.30;;;;;;5102206;28;20042;-64
2024/02/02 08:27:38;;;;;;;8.93;3.10;;;19.20;61.30;;;;;;5109783;28;20127;-64
2024/02/02 08:30:07;;;;;;;7.15;2.78;;;19.20;61.30;;;;;;5106728;28;20114;-64
2024/02/02 08:32:34;;;;;;;14.70;4.55;;;19.30;61.20;;;;;;5096429;28;20040;-64
2024/02/02 08:35:01;;;;;;;12.25;2.75;;;19.30;61.00;;;;;;5098984;28;20032;-64
2024/02/02 08:37:26;;;;;;;12.55;2.63;;;19.30;61.40;;;;;;5106117;28;20093;-64
2024/02/02 08:39:52;;;;;;;6.97;2.50;;;19.30;61.40;;;;;;5094229;28;20024;-64
2024/02/02 08:42:21;;;;;;;14.75;3.25;;;19.40;61.30;;;;;;5106001;28;20107;-65
2024/02/02 08:44:48;;;;;;;16.80;2.70;;;19.20;60.70;;;;;;5098367;28;20128;-71
2024/02/02 08:47:14;;;;;;;12.35;2.90;;;19.30;61.90;;;;;;5090377;28;20024;-67
